createdAt,value
2022-08-02T00:00:39.397Z,10.90
2022-08-02T00:02:42.548Z,4.40
2022-08-02T00:04:44.207Z,5.90
2022-08-02T00:06:45.999Z,1.90
2022-08-02T00:08:47.701Z,2.30
2022-08-02T00:10:49.891Z,5.40
2022-08-02T00:12:51.684Z,3.70
2022-08-02T00:14:55.046Z,3.40
2022-08-02T00:16:56.849Z,5.40
2022-08-02T00:18:58.522Z,1.60
2022-08-02T00:21:04.537Z,3.50
2022-08-02T00:23:06.232Z,1.70
2022-08-02T00:25:08.157Z,4.50
2022-08-02T00:29:11.682Z,3.60
2022-08-02T00:31:13.398Z,3.50
2022-08-02T00:33:15.107Z,6.60
2022-08-02T00:35:20.735Z,4.00
2022-08-02T00:37:22.507Z,4.40
2022-08-02T00:39:35.077Z,3.40
2022-08-02T00:41:48.408Z,3.90
2022-08-02T00:43:51.679Z,4.30
2022-08-02T00:46:02.269Z,5.20
2022-08-02T00:50:08.249Z,2.80
2022-08-02T00:52:10.267Z,3.60
2022-08-02T00:54:12.909Z,3.60
2022-08-02T00:56:14.598Z,4.30
2022-08-02T00:58:16.615Z,2.80
2022-08-02T01:02:20.090Z,3.40
2022-08-02T01:04:30.749Z,3.10
2022-08-02T01:06:33.982Z,3.50
2022-08-02T01:08:35.633Z,3.20
2022-08-02T01:10:37.674Z,5.10
2022-08-02T01:12:39.777Z,3.60
2022-08-02T01:14:43.690Z,2.80
2022-08-02T01:16:52.866Z,5.90
2022-08-02T01:22:12.244Z,3.20
2022-08-02T01:24:24.836Z,2.70
2022-08-02T01:26:35.604Z,4.60
2022-08-02T01:28:54.489Z,6.10
2022-08-02T01:31:00.828Z,5.70
2022-08-02T01:33:04.820Z,6.90
2022-08-02T01:35:14.149Z,3.10
2022-08-02T01:37:19.889Z,3.70
2022-08-02T01:39:26.688Z,4.00
2022-08-02T01:41:34.542Z,5.60
2022-08-02T01:43:36.526Z,3.10
2022-08-02T01:47:43.236Z,2.30
2022-08-02T01:49:47.025Z,2.40
2022-08-02T01:52:11.291Z,4.20
2022-08-02T01:54:16.025Z,1.10
2022-08-02T01:56:18.682Z,2.30
2022-08-02T01:58:22.783Z,2.00
2022-08-02T02:00:27.400Z,3.30
2022-08-02T02:02:31.856Z,2.30
2022-08-02T02:04:35.844Z,1.80
2022-08-02T02:06:38.287Z,2.50
2022-08-02T02:08:41.969Z,1.80
2022-08-02T02:10:45.685Z,2.90
2022-08-02T02:12:51.170Z,1.60
2022-08-02T02:14:53.623Z,4.10
2022-08-02T02:16:57.344Z,1.30
2022-08-02T02:19:02.213Z,2.00
2022-08-02T02:21:05.005Z,5.30
2022-08-02T02:23:06.764Z,1.30
2022-08-02T02:25:11.458Z,3.10
2022-08-02T02:27:13.580Z,4.50
2022-08-02T02:31:20.412Z,1.80
2022-08-02T02:33:26.438Z,3.30
2022-08-02T02:35:34.445Z,1.80
2022-08-02T02:37:37.752Z,2.20
2022-08-02T02:39:40.358Z,2.00
2022-08-02T02:41:43.695Z,2.10
2022-08-02T02:43:46.475Z,1.30
2022-08-02T02:45:48.205Z,2.30
2022-08-02T02:48:03.326Z,2.30
2022-08-02T02:50:08.001Z,4.70
2022-08-02T02:52:10.857Z,2.60
2022-08-02T02:54:30.653Z,6.40
2022-08-02T02:58:38.527Z,3.70
2022-08-02T03:00:58.957Z,2.00
2022-08-02T03:03:00.718Z,8.40
2022-08-02T03:05:04.004Z,1.40
2022-08-02T03:07:05.882Z,4.10
2022-08-02T03:09:08.078Z,1.70
2022-08-02T03:11:10.471Z,3.00
2022-08-02T03:13:12.747Z,2.00
2022-08-02T03:15:15.178Z,2.10
2022-08-02T03:17:17.253Z,2.30
2022-08-02T03:19:20.222Z,2.50
2022-08-02T03:21:22.114Z,3.70
2022-08-02T03:25:27.976Z,3.10
2022-08-02T03:27:29.675Z,2.30
2022-08-02T03:29:34.488Z,4.40
2022-08-02T03:31:37.378Z,4.40
2022-08-02T03:33:39.245Z,1.70
2022-08-02T03:35:42.134Z,2.90
2022-08-02T03:37:44.170Z,2.40
2022-08-02T03:39:49.609Z,1.30
2022-08-02T03:41:55.447Z,3.40
2022-08-02T03:43:57.606Z,3.50
2022-08-02T03:46:00.374Z,3.40
2022-08-02T03:48:29.409Z,2.60
2022-08-02T03:50:26.303Z,3.70
2022-08-02T03:52:28.664Z,2.70
2022-08-02T03:54:34.632Z,4.20
2022-08-02T03:56:46.847Z,3.90
2022-08-02T03:58:50.803Z,1.80
2022-08-02T04:00:54.289Z,4.40
2022-08-02T04:02:56.073Z,4.20
2022-08-02T04:04:57.756Z,4.40
2022-08-02T04:06:59.412Z,1.70
2022-08-02T04:11:21.732Z,2.60
2022-08-02T04:13:31.652Z,4.80
2022-08-02T04:15:36.647Z,4.20
2022-08-02T04:17:42.704Z,3.90
2022-08-02T04:19:48.555Z,5.50
2022-08-02T04:21:52.568Z,4.70
2022-08-02T04:23:55.974Z,4.90
2022-08-02T04:26:00.616Z,3.30
2022-08-02T04:28:15.426Z,3.10
2022-08-02T04:30:20.297Z,2.00
2022-08-02T04:32:22.174Z,1.70
2022-08-02T04:34:23.971Z,2.30
2022-08-02T04:36:30.860Z,2.80
2022-08-02T04:38:33.696Z,3.30
2022-08-02T04:40:35.638Z,4.80
2022-08-02T04:44:39.181Z,2.20
2022-08-02T04:46:42.249Z,3.20
2022-08-02T04:48:44.170Z,3.30
2022-08-02T04:52:48.233Z,1.10
2022-08-02T04:54:51.330Z,2.90
2022-08-02T04:56:53.059Z,1.70
2022-08-02T04:58:54.779Z,2.50
2022-08-02T05:00:56.623Z,1.30
2022-08-02T05:02:59.228Z,4.70
2022-08-02T05:05:00.982Z,3.00
2022-08-02T05:07:03.754Z,1.70
2022-08-02T05:09:05.778Z,2.20
2022-08-02T05:13:09.065Z,2.30
2022-08-02T05:15:13.119Z,2.40
2022-08-02T05:17:16.145Z,2.40
2022-08-02T05:19:17.865Z,4.70
2022-08-02T05:21:19.585Z,2.70
2022-08-02T05:23:21.242Z,1.60
2022-08-02T05:25:22.953Z,3.40
2022-08-02T05:27:24.643Z,4.30
2022-08-02T05:29:26.420Z,4.10
2022-08-02T05:31:28.185Z,4.10
2022-08-02T05:33:29.906Z,3.40
2022-08-02T05:35:31.716Z,2.40
2022-08-02T05:37:33.424Z,3.80
2022-08-02T05:39:37.111Z,2.50
2022-08-02T05:41:56.913Z,3.60
2022-08-02T05:43:58.685Z,4.00
2022-08-02T05:46:00.583Z,1.40
2022-08-02T05:50:09.651Z,2.00
2022-08-02T05:52:19.650Z,7.60
2022-08-02T05:55:10.162Z,8.70
2022-08-02T05:57:43.461Z,2.80
2022-08-02T06:00:00.385Z,4.90
2022-08-02T06:02:15.787Z,3.50
2022-08-02T06:04:27.191Z,3.10
2022-08-02T06:06:30.231Z,2.70
2022-08-02T06:08:45.804Z,3.10
2022-08-02T06:10:51.843Z,3.40
2022-08-02T06:13:14.345Z,1.80
2022-08-02T06:15:18.716Z,4.20
2022-08-02T06:17:20.962Z,4.60
2022-08-02T06:19:23.209Z,5.00
2022-08-02T06:22:35.441Z,2.80
2022-08-02T06:23:57.860Z,3.20
2022-08-02T06:26:01.903Z,5.90
2022-08-02T06:28:11.414Z,5.60
2022-08-02T06:30:13.738Z,4.30
2022-08-02T06:34:22.911Z,2.50
2022-08-02T06:36:24.990Z,5.50
2022-08-02T06:38:33.462Z,5.40
2022-08-02T06:41:12.143Z,2.40
2022-08-02T06:43:24.144Z,4.00
2022-08-02T06:45:25.932Z,3.60
2022-08-02T06:47:29.172Z,5.00
2022-08-02T06:49:52.738Z,4.50
2022-08-02T06:51:52.598Z,4.70
2022-08-02T06:53:54.457Z,1.60
2022-08-02T06:55:56.891Z,6.40
2022-08-02T06:58:00.309Z,3.30
2022-08-02T07:00:03.701Z,5.60
2022-08-02T07:02:05.467Z,5.30
2022-08-02T07:04:08.439Z,3.80
2022-08-02T07:06:10.853Z,1.90
2022-08-02T07:08:12.527Z,3.20
2022-08-02T07:10:14.622Z,2.40
2022-08-02T07:12:16.443Z,6.00
2022-08-02T07:16:20.110Z,3.00
2022-08-02T07:20:27.573Z,3.60
2022-08-02T07:22:29.944Z,4.10
2022-08-02T07:24:31.763Z,2.20
2022-08-02T07:28:51.665Z,4.10
2022-08-02T07:32:56.956Z,6.60
2022-08-02T07:35:06.928Z,2.40
2022-08-02T07:37:11.206Z,7.10
2022-08-02T07:39:25.387Z,2.10
2022-08-02T07:41:29.005Z,2.30
2022-08-02T07:43:30.685Z,2.60
2022-08-02T07:45:35.831Z,3.40
2022-08-02T07:47:39.329Z,4.30
2022-08-02T07:49:42.076Z,4.70
2022-08-02T07:51:45.384Z,2.70
2022-08-02T07:53:51.166Z,2.10
2022-08-02T07:56:03.941Z,5.70
2022-08-02T08:00:11.784Z,4.70
2022-08-02T08:02:14.847Z,5.10
2022-08-02T08:04:17.467Z,4.60
2022-08-02T08:06:19.155Z,4.00
2022-08-02T08:08:39.946Z,5.90
2022-08-02T08:10:41.847Z,3.80
2022-08-02T08:12:43.530Z,5.90
2022-08-02T08:14:45.244Z,5.50
2022-08-02T08:16:47.573Z,2.60
2022-08-02T08:18:49.341Z,2.10
2022-08-02T08:22:53.497Z,4.00
2022-08-02T08:24:55.138Z,3.00
2022-08-02T08:26:56.884Z,5.50
2022-08-02T08:28:58.640Z,2.80
2022-08-02T08:33:02.028Z,2.90
2022-08-02T08:37:06.390Z,3.90
2022-08-02T08:39:09.112Z,5.00
2022-08-02T08:41:11.003Z,2.90
2022-08-02T08:43:14.057Z,2.00
2022-08-02T08:45:18.065Z,2.20
2022-08-02T08:47:20.982Z,2.10
2022-08-02T08:49:23.299Z,0.90
2022-08-02T08:51:28.315Z,1.30
2022-08-02T08:53:36.632Z,8.90
2022-08-02T08:55:38.890Z,2.10
2022-08-02T08:57:44.869Z,1.50
2022-08-02T08:59:46.610Z,1.60
2022-08-02T09:03:53.845Z,0.30
2022-08-02T09:05:58.139Z,2.60
2022-08-02T09:08:00.186Z,2.10
2022-08-02T09:10:01.956Z,1.00
2022-08-02T09:14:29.365Z,13.50
2022-08-02T09:16:34.970Z,2.30
2022-08-02T09:18:39.990Z,1.20
2022-08-02T09:20:59.336Z,2.90
2022-08-02T09:23:10.937Z,0.60
2022-08-02T09:25:15.761Z,0.80
2022-08-02T09:27:19.370Z,1.40
2022-08-02T09:29:24.573Z,0.80
2022-08-02T09:31:26.705Z,1.30
2022-08-02T09:33:29.233Z,0.80
2022-08-02T09:36:05.216Z,0.90
2022-08-02T09:38:11.665Z,4.70
2022-08-02T09:42:15.761Z,0.20
2022-08-02T09:44:17.640Z,1.50
2022-08-02T09:48:28.368Z,0.70
2022-08-02T09:52:37.459Z,0.70
2022-08-02T09:54:45.506Z,0.60
2022-08-02T09:58:51.696Z,0.20
2022-08-02T10:00:59.133Z,1.80
2022-08-02T10:03:08.346Z,1.20
2022-08-02T10:05:10.429Z,1.60
2022-08-02T10:07:14.754Z,2.30
2022-08-02T10:11:18.048Z,7.50
2022-08-02T10:15:27.405Z,1.50
2022-08-02T10:17:29.909Z,0.70
2022-08-02T10:20:00.589Z,2.00
2022-08-02T10:22:03.822Z,1.90
2022-08-02T10:24:11.965Z,1.40
2022-08-02T10:26:16.854Z,3.30
2022-08-02T10:28:19.025Z,3.40
2022-08-02T10:30:23.546Z,1.70
2022-08-02T10:32:38.250Z,1.50
2022-08-02T10:34:57.695Z,2.30
2022-08-02T10:37:06.693Z,2.70
2022-08-02T10:39:08.464Z,3.80
2022-08-02T10:41:10.851Z,2.60
2022-08-02T10:43:13.323Z,4.80
2022-08-02T10:45:17.464Z,5.90
2022-08-02T10:47:20.157Z,2.60
2022-08-02T10:49:40.109Z,2.10
2022-08-02T10:53:26.313Z,2.60
2022-08-02T10:55:28.017Z,2.10
2022-08-02T10:57:32.381Z,2.60
2022-08-02T10:59:36.289Z,3.30
2022-08-02T11:01:43.861Z,3.10
2022-08-02T11:03:45.616Z,3.80
2022-08-02T11:06:01.959Z,5.80
2022-08-02T11:08:21.332Z,2.50
2022-08-02T11:10:49.185Z,4.20
2022-08-02T11:13:06.063Z,2.00
2022-08-02T11:15:08.146Z,2.70
2022-08-02T11:17:09.915Z,4.00
2022-08-02T11:19:12.672Z,5.40
2022-08-02T11:21:28.607Z,6.80
2022-08-02T11:23:44.129Z,5.80
2022-08-02T11:26:10.887Z,4.00
2022-08-02T11:28:12.190Z,5.80
2022-08-02T11:30:14.673Z,2.80
2022-08-02T11:32:30.972Z,4.50
2022-08-02T11:34:37.300Z,7.60
2022-08-02T11:36:44.634Z,5.60
2022-08-02T11:38:46.384Z,5.40
2022-08-02T11:40:48.940Z,4.10
2022-08-02T11:42:50.811Z,3.20
2022-08-02T11:44:52.590Z,5.30
2022-08-02T11:47:02.203Z,5.20
2022-08-02T11:49:18.279Z,4.80
2022-08-02T11:51:20.149Z,9.00
2022-08-02T11:55:31.552Z,5.50
2022-08-02T11:58:03.321Z,8.00
2022-08-02T11:59:56.725Z,11.30
2022-08-02T12:01:58.429Z,5.60
2022-08-02T12:06:06.793Z,7.00
2022-08-02T12:08:12.547Z,4.00
2022-08-02T12:10:22.323Z,5.10
2022-08-02T12:12:24.057Z,4.90
2022-08-02T12:16:58.232Z,6.30
2022-08-02T12:19:18.700Z,8.20
2022-08-02T12:21:23.182Z,7.60
2022-08-02T12:23:25.054Z,8.50
2022-08-02T12:25:34.330Z,5.50
2022-08-02T12:27:40.524Z,6.60
2022-08-02T12:29:55.995Z,6.50
2022-08-02T12:32:02.197Z,6.70
2022-08-02T12:34:15.012Z,6.30
2022-08-02T12:36:22.427Z,5.90
2022-08-02T12:38:24.142Z,4.90
2022-08-02T12:42:28.961Z,9.10
2022-08-02T12:44:30.660Z,4.00
2022-08-02T12:49:02.649Z,6.30
2022-08-02T12:51:21.158Z,9.90
2022-08-02T12:53:31.653Z,8.70
2022-08-02T12:56:00.864Z,7.80
2022-08-02T13:00:04.405Z,9.40
2022-08-02T13:02:08.745Z,10.10
2022-08-02T13:04:15.849Z,9.50
2022-08-02T13:08:41.447Z,7.10
2022-08-02T13:10:43.513Z,10.50
2022-08-02T13:12:46.007Z,10.60
2022-08-02T13:14:47.732Z,5.60
2022-08-02T13:16:49.592Z,8.20
2022-08-02T13:18:51.308Z,5.80
2022-08-02T13:20:53.099Z,5.80
2022-08-02T13:22:55.964Z,10.50
2022-08-02T13:25:06.248Z,5.60
2022-08-02T13:27:09.299Z,11.00
2022-08-02T13:29:12.673Z,11.80
2022-08-02T13:31:35.622Z,12.00
2022-08-02T13:33:38.776Z,7.80
2022-08-02T13:35:40.633Z,10.60
2022-08-02T13:37:42.762Z,7.50
2022-08-02T13:39:55.600Z,7.30
2022-08-02T13:42:02.083Z,17.30
2022-08-02T13:44:10.239Z,16.60
2022-08-02T13:46:13.224Z,9.60
2022-08-02T13:48:17.192Z,9.90
2022-08-02T13:50:21.377Z,10.60
2022-08-02T13:52:27.142Z,9.20
2022-08-02T13:54:28.931Z,10.10
2022-08-02T13:56:35.605Z,12.30
2022-08-02T13:58:37.828Z,13.60
2022-08-02T14:00:39.480Z,13.10
2022-08-02T14:02:41.224Z,7.80
2022-08-02T14:04:43.038Z,8.60
2022-08-02T14:06:44.701Z,11.00
2022-08-02T14:08:46.409Z,11.00
2022-08-02T14:10:50.371Z,6.60
2022-08-02T14:12:56.486Z,11.80
2022-08-02T14:14:58.515Z,10.80
2022-08-02T14:17:01.963Z,10.60
2022-08-02T14:19:15.493Z,10.80
2022-08-02T14:21:18.583Z,8.30
2022-08-02T14:23:49.853Z,14.50
2022-08-02T14:29:46.726Z,18.10
2022-08-02T14:31:48.434Z,13.60
2022-08-02T14:33:50.322Z,8.40
2022-08-02T14:35:56.774Z,14.70
2022-08-02T14:37:58.749Z,13.30
2022-08-02T14:40:01.193Z,7.70
2022-08-02T14:42:03.337Z,15.10
2022-08-02T14:44:05.352Z,15.50
2022-08-02T14:46:07.061Z,11.60
2022-08-02T14:48:11.177Z,10.00
2022-08-02T14:50:17.251Z,12.90
2022-08-02T14:52:19.997Z,10.00
2022-08-02T14:54:27.957Z,11.80
2022-08-02T14:56:35.306Z,11.80
2022-08-02T14:58:36.976Z,14.30
2022-08-02T15:00:41.238Z,11.00
2022-08-02T15:02:43.217Z,10.50
2022-08-02T15:04:44.927Z,12.30
2022-08-02T15:06:47.083Z,9.40
2022-08-02T15:08:49.157Z,6.60
2022-08-02T15:10:50.872Z,11.20
2022-08-02T15:12:52.589Z,11.20
2022-08-02T15:14:55.666Z,12.80
2022-08-02T15:16:58.805Z,11.40
2022-08-02T15:19:06.550Z,13.60
2022-08-02T15:21:40.324Z,12.90
2022-08-02T15:23:37.457Z,12.90
2022-08-02T15:25:41.709Z,12.90
2022-08-02T15:27:45.013Z,11.70
2022-08-02T15:29:47.021Z,15.20
2022-08-02T15:31:48.895Z,11.60
2022-08-02T15:33:50.570Z,17.80
2022-08-02T15:35:52.286Z,18.00
2022-08-02T15:37:57.438Z,13.60
2022-08-02T15:40:03.289Z,14.20
2022-08-02T15:42:05.067Z,10.20
2022-08-02T15:44:10.051Z,14.50
2022-08-02T15:46:11.808Z,17.00
2022-08-02T15:48:13.474Z,14.10
2022-08-02T15:50:15.265Z,19.50
2022-08-02T15:52:17.313Z,13.40
2022-08-02T15:54:19.239Z,18.10
2022-08-02T15:56:21.923Z,16.40
2022-08-02T15:58:29.136Z,17.90
2022-08-02T16:00:30.928Z,14.20
2022-08-02T16:02:32.730Z,16.20
2022-08-02T16:04:37.418Z,21.20
2022-08-02T16:06:39.134Z,14.00
2022-08-02T16:08:53.570Z,13.20
2022-08-02T16:10:56.098Z,16.00
2022-08-02T16:13:17.750Z,20.50
2022-08-02T16:15:21.129Z,20.60
2022-08-02T16:17:48.924Z,16.60
2022-08-02T16:19:49.130Z,14.30
2022-08-02T16:21:53.161Z,19.30
2022-08-02T16:24:02.600Z,16.20
2022-08-02T16:26:05.158Z,13.40
2022-08-02T16:28:08.073Z,20.70
2022-08-02T16:30:10.925Z,16.50
2022-08-02T16:32:14.988Z,15.10
2022-08-02T16:34:17.964Z,18.40
2022-08-02T16:36:19.791Z,17.70
2022-08-02T16:38:22.185Z,16.30
2022-08-02T16:40:24.074Z,15.60
2022-08-02T16:42:25.949Z,15.60
2022-08-02T16:44:30.483Z,24.00
2022-08-02T16:46:32.773Z,15.00
2022-08-02T16:48:34.540Z,16.20
2022-08-02T16:50:37.002Z,21.90
2022-08-02T16:52:39.513Z,17.90
2022-08-02T16:54:41.358Z,15.30
2022-08-02T16:56:43.259Z,14.70
2022-08-02T16:58:45.158Z,14.00
2022-08-02T17:00:49.720Z,18.10
2022-08-02T17:02:54.704Z,14.50
2022-08-02T17:05:03.406Z,14.30
2022-08-02T17:07:11.061Z,16.30
2022-08-02T17:09:13.308Z,20.70
2022-08-02T17:11:39.975Z,14.00
2022-08-02T17:13:50.084Z,19.80
2022-08-02T17:16:17.157Z,19.60
2022-08-02T17:18:14.178Z,12.40
2022-08-02T17:20:15.903Z,16.80
2022-08-02T17:22:17.849Z,18.00
2022-08-02T17:24:19.792Z,17.10
2022-08-02T17:26:21.660Z,18.50
2022-08-02T17:28:31.070Z,14.90
2022-08-02T17:30:33.923Z,15.90
2022-08-02T17:32:36.460Z,16.50
2022-08-02T17:34:49.105Z,19.20
2022-08-02T17:36:58.684Z,17.30
2022-08-02T17:39:00.505Z,12.80
2022-08-02T17:41:06.744Z,13.50
2022-08-02T17:43:18.453Z,14.90
2022-08-02T17:45:59.289Z,16.20
2022-08-02T17:50:12.762Z,17.10
2022-08-02T17:52:51.557Z,17.00
2022-08-02T17:54:37.842Z,17.30
2022-08-02T17:56:42.333Z,16.80
2022-08-02T17:58:53.798Z,15.90
2022-08-02T18:00:57.034Z,15.70
2022-08-02T18:03:02.046Z,15.70
2022-08-02T18:05:11.686Z,19.00
2022-08-02T18:07:16.815Z,16.40
2022-08-02T18:09:27.837Z,17.90
2022-08-02T18:11:52.607Z,12.80
2022-08-02T18:13:53.237Z,19.10
2022-08-02T18:15:57.401Z,13.50
2022-08-02T18:18:01.269Z,13.70
2022-08-02T18:20:10.226Z,13.50
2022-08-02T18:22:12.972Z,16.40
2022-08-02T18:24:16.648Z,16.80
2022-08-02T18:26:20.843Z,17.60
2022-08-02T18:28:26.865Z,14.50
2022-08-02T18:30:28.707Z,11.70
2022-08-02T18:33:55.058Z,19.00
2022-08-02T18:34:53.317Z,21.20
2022-08-02T18:36:55.152Z,14.70
2022-08-02T18:38:57.186Z,18.60
2022-08-02T18:41:02.337Z,15.80
2022-08-02T18:43:07.254Z,15.00
2022-08-02T18:45:19.826Z,17.70
2022-08-02T18:47:22.788Z,10.00
2022-08-02T18:49:25.544Z,12.20
2022-08-02T18:51:42.199Z,11.80
2022-08-02T18:53:44.025Z,16.10
2022-08-02T18:56:00.149Z,10.90
2022-08-02T18:58:19.745Z,14.10
2022-08-02T19:00:25.855Z,9.90
2022-08-02T19:02:28.114Z,10.90
2022-08-02T19:06:32.064Z,14.00
2022-08-02T19:08:35.002Z,15.80
2022-08-02T19:10:39.086Z,12.00
2022-08-02T19:12:51.655Z,13.40
2022-08-02T19:14:53.477Z,15.70
2022-08-02T19:16:59.562Z,12.20
2022-08-02T19:19:05.073Z,12.00
2022-08-02T19:21:08.101Z,12.60
2022-08-02T19:23:10.507Z,10.90
2022-08-02T19:25:17.808Z,9.80
2022-08-02T19:27:25.966Z,12.80
2022-08-02T19:29:48.186Z,11.80
2022-08-02T19:32:00.154Z,15.00
2022-08-02T19:34:07.255Z,16.00
2022-08-02T19:36:10.008Z,12.40
2022-08-02T19:38:13.629Z,10.10
2022-08-02T19:40:20.633Z,18.20
2022-08-02T19:42:24.950Z,11.70
2022-08-02T19:44:29.417Z,10.80
2022-08-02T19:46:32.382Z,10.80
2022-08-02T19:48:34.090Z,23.70
2022-08-02T19:50:35.780Z,11.10
2022-08-02T19:52:37.476Z,12.00
2022-08-02T19:54:54.958Z,18.20
2022-08-02T19:56:58.426Z,16.50
2022-08-02T19:59:00.701Z,14.30
2022-08-02T20:01:02.675Z,12.50
2022-08-02T20:03:04.497Z,17.90
2022-08-02T20:05:16.287Z,22.50
2022-08-02T20:07:55.328Z,15.10
2022-08-02T20:09:53.343Z,13.80
2022-08-02T20:11:55.291Z,11.30
2022-08-02T20:13:57.048Z,17.70
2022-08-02T20:16:02.456Z,19.30
2022-08-02T20:18:07.519Z,16.60
2022-08-02T20:20:10.501Z,12.80
2022-08-02T20:22:13.915Z,11.20
2022-08-02T20:24:16.289Z,15.60
2022-08-02T20:26:17.926Z,16.50
2022-08-02T20:28:23.962Z,13.50
2022-08-02T20:30:26.202Z,15.20
2022-08-02T20:32:30.426Z,10.50
2022-08-02T20:34:33.749Z,11.70
2022-08-02T20:36:38.217Z,13.70
2022-08-02T20:40:42.777Z,13.60
2022-08-02T20:42:47.637Z,11.20
2022-08-02T20:44:50.260Z,15.50
2022-08-02T20:48:53.960Z,13.20
2022-08-02T20:50:58.556Z,8.70
2022-08-02T20:53:01.089Z,13.90
2022-08-02T20:55:05.927Z,12.60
2022-08-02T20:57:07.821Z,10.70
2022-08-02T20:59:15.560Z,16.40
2022-08-02T21:01:18.108Z,15.50
2022-08-02T21:03:38.669Z,12.80
2022-08-02T21:05:54.568Z,8.70
2022-08-02T21:08:02.355Z,11.90
2022-08-02T21:10:06.506Z,16.20
2022-08-02T21:12:12.557Z,10.60
2022-08-02T21:14:32.558Z,10.80
2022-08-02T21:16:34.197Z,13.30
2022-08-02T21:18:40.071Z,8.80
2022-08-02T21:20:44.054Z,11.70
2022-08-02T21:22:45.734Z,13.10
2022-08-02T21:24:47.531Z,16.30
2022-08-02T21:26:49.273Z,15.40
2022-08-02T21:28:54.155Z,12.20
2022-08-02T21:30:56.944Z,13.30
2022-08-02T21:32:58.740Z,11.70
2022-08-02T21:35:02.577Z,18.30
2022-08-02T21:39:26.789Z,12.80
2022-08-02T21:41:39.625Z,12.30
2022-08-02T21:43:47.795Z,10.90
2022-08-02T21:45:53.823Z,9.70
2022-08-02T21:47:57.510Z,9.80
2022-08-02T21:50:12.860Z,16.40
2022-08-02T21:52:18.165Z,15.10
2022-08-02T21:54:21.668Z,16.10
2022-08-02T21:56:23.561Z,13.00
2022-08-02T21:58:25.235Z,16.10
2022-08-02T22:00:28.917Z,9.20
2022-08-02T22:02:31.248Z,15.60
2022-08-02T22:04:33.193Z,15.30
2022-08-02T22:06:37.414Z,8.00
2022-08-02T22:08:43.311Z,16.70
2022-08-02T22:11:03.660Z,15.40
2022-08-02T22:13:05.424Z,10.00
2022-08-02T22:15:16.211Z,12.50
2022-08-02T22:17:50.939Z,10.80
2022-08-02T22:19:53.837Z,10.20
2022-08-02T22:21:59.222Z,16.60
2022-08-02T22:24:05.573Z,12.40
2022-08-02T22:26:14.633Z,13.60
2022-08-02T22:28:39.087Z,13.00
2022-08-02T22:30:44.286Z,12.00
2022-08-02T22:33:14.961Z,13.30
2022-08-02T22:35:17.177Z,12.10
2022-08-02T22:38:16.976Z,8.40
2022-08-02T22:42:14.823Z,16.10
2022-08-02T22:44:18.615Z,11.10
2022-08-02T22:46:26.526Z,12.90
2022-08-02T22:48:28.423Z,10.90
2022-08-02T22:50:30.598Z,10.40
2022-08-02T22:52:32.282Z,14.40
2022-08-02T22:54:33.989Z,8.40
2022-08-02T22:56:35.843Z,10.40
2022-08-02T22:58:40.417Z,15.80
2022-08-02T22:59:11.086Z,11.90
2022-08-02T23:03:06.758Z,17.90
2022-08-02T23:05:09.117Z,7.70
2022-08-02T23:09:12.558Z,9.80
2022-08-02T23:11:16.991Z,7.40
2022-08-02T23:13:18.898Z,7.50
2022-08-02T23:15:20.631Z,12.90
2022-08-02T23:17:41.356Z,8.30
2022-08-02T23:19:52.235Z,12.30
2022-08-02T23:22:02.101Z,16.10
2022-08-02T23:24:07.686Z,14.30
2022-08-02T23:26:09.882Z,10.20
2022-08-02T23:28:14.513Z,7.00
2022-08-02T23:30:16.710Z,10.60
2022-08-02T23:32:18.620Z,7.80
2022-08-02T23:34:24.699Z,8.80
2022-08-02T23:36:26.519Z,14.10
2022-08-02T23:38:28.307Z,13.70
2022-08-02T23:40:31.492Z,12.50
2022-08-02T23:42:45.551Z,16.70
2022-08-02T23:44:47.246Z,12.50
2022-08-02T23:46:48.946Z,10.30
2022-08-02T23:48:51.752Z,12.60
2022-08-02T23:50:53.479Z,8.80
2022-08-02T23:52:55.183Z,12.90
2022-08-02T23:54:56.856Z,9.80
2022-08-02T23:56:59.314Z,9.60
2022-08-02T23:59:00.997Z,9.80
